sensor_id;sensor_type;location;lat;lon;timestamp;P1;durP1;ratioP1;P2;durP2;ratioP2
67867;SDS011;54672;46.096;14.470;2022-11-15T00:01:32;49.33;;;21.25;;
67867;SDS011;54672;46.096;14.470;2022-11-15T00:03:58;47.58;;;20.02;;
67867;SDS011;54672;46.096;14.470;2022-11-15T00:06:23;46.40;;;20.48;;
67867;SDS011;54672;46.096;14.470;2022-11-15T00:08:49;42.47;;;18.58;;
67867;SDS011;54672;46.096;14.470;2022-11-15T00:11:14;37.22;;;17.73;;
67867;SDS011;54672;46.096;14.470;2022-11-15T00:13:40;52.92;;;21.63;;
67867;SDS011;54672;46.096;14.470;2022-11-15T00:16:05;56.28;;;23.95;;
67867;SDS011;54672;46.096;14.470;2022-11-15T00:18:31;55.03;;;22.17;;
67867;SDS011;54672;46.096;14.470;2022-11-15T00:21:02;56.85;;;22.50;;
67867;SDS011;54672;46.096;14.470;2022-11-15T00:23:30;55.25;;;22.80;;
67867;SDS011;54672;46.096;14.470;2022-11-15T00:25:56;60.75;;;23.98;;
67867;SDS011;54672;46.096;14.470;2022-11-15T00:28:22;63.47;;;24.50;;
67867;SDS011;54672;46.096;14.470;2022-11-15T00:30:48;58.17;;;25.50;;
67867;SDS011;54672;46.096;14.470;2022-11-15T00:33:13;63.42;;;25.05;;
67867;SDS011;54672;46.096;14.470;2022-11-15T00:35:39;62.80;;;25.75;;
67867;SDS011;54672;46.096;14.470;2022-11-15T00:38:04;67.20;;;24.80;;
67867;SDS011;54672;46.096;14.470;2022-11-15T00:40:29;61.22;;;24.30;;
67867;SDS011;54672;46.096;14.470;2022-11-15T00:42:55;60.45;;;24.77;;
67867;SDS011;54672;46.096;14.470;2022-11-15T00:45:22;62.55;;;25.20;;
67867;SDS011;54672;46.096;14.470;2022-11-15T00:47:48;62.08;;;25.55;;
67867;SDS011;54672;46.096;14.470;2022-11-15T00:50:13;59.15;;;24.52;;
67867;SDS011;54672;46.096;14.470;2022-11-15T00:52:39;61.63;;;24.75;;
67867;SDS011;54672;46.096;14.470;2022-11-15T00:55:04;58.22;;;23.02;;
67867;SDS011;54672;46.096;14.470;2022-11-15T00:57:30;58.42;;;24.35;;
67867;SDS011;54672;46.096;14.470;2022-11-15T00:59:55;54.67;;;24.40;;
67867;SDS011;54672;46.096;14.470;2022-11-15T01:02:21;60.47;;;24.42;;
67867;SDS011;54672;46.096;14.470;2022-11-15T01:04:46;60.58;;;24.73;;
67867;SDS011;54672;46.096;14.470;2022-11-15T01:07:12;62.20;;;24.02;;
67867;SDS011;54672;46.096;14.470;2022-11-15T01:09:38;65.88;;;24.98;;
67867;SDS011;54672;46.096;14.470;2022-11-15T01:12:03;60.65;;;25.20;;
67867;SDS011;54672;46.096;14.470;2022-11-15T01:14:29;63.95;;;24.15;;
67867;SDS011;54672;46.096;14.470;2022-11-15T01:16:54;60.47;;;25.08;;
67867;SDS011;54672;46.096;14.470;2022-11-15T01:19:20;63.72;;;24.42;;
67867;SDS011;54672;46.096;14.470;2022-11-15T01:21:48;57.92;;;24.25;;
67867;SDS011;54672;46.096;14.470;2022-11-15T01:24:14;57.67;;;22.52;;
67867;SDS011;54672;46.096;14.470;2022-11-15T01:26:40;57.42;;;23.65;;
67867;SDS011;54672;46.096;14.470;2022-11-15T01:29:06;58.38;;;24.77;;
67867;SDS011;54672;46.096;14.470;2022-11-15T01:31:31;55.85;;;23.25;;
67867;SDS011;54672;46.096;14.470;2022-11-15T01:33:56;56.40;;;22.55;;
67867;SDS011;54672;46.096;14.470;2022-11-15T01:36:22;47.17;;;20.50;;
67867;SDS011;54672;46.096;14.470;2022-11-15T01:38:54;53.00;;;22.00;;
67867;SDS011;54672;46.096;14.470;2022-11-15T01:41:23;47.00;;;21.55;;
67867;SDS011;54672;46.096;14.470;2022-11-15T01:43:54;48.97;;;21.40;;
67867;SDS011;54672;46.096;14.470;2022-11-15T01:46:39;50.42;;;21.83;;
67867;SDS011;54672;46.096;14.470;2022-11-15T01:49:13;49.22;;;20.88;;
67867;SDS011;54672;46.096;14.470;2022-11-15T01:51:41;51.08;;;22.05;;
67867;SDS011;54672;46.096;14.470;2022-11-15T01:54:08;43.58;;;19.15;;
67867;SDS011;54672;46.096;14.470;2022-11-15T01:56:44;45.28;;;20.27;;
67867;SDS011;54672;46.096;14.470;2022-11-15T01:59:17;42.20;;;20.23;;
67867;SDS011;54672;46.096;14.470;2022-11-15T02:01:43;49.13;;;22.48;;
67867;SDS011;54672;46.096;14.470;2022-11-15T02:04:16;44.63;;;21.27;;
67867;SDS011;54672;46.096;14.470;2022-11-15T02:06:46;51.15;;;21.58;;
67867;SDS011;54672;46.096;14.470;2022-11-15T02:09:13;47.97;;;22.08;;
67867;SDS011;54672;46.096;14.470;2022-11-15T02:11:39;50.60;;;22.30;;
67867;SDS011;54672;46.096;14.470;2022-11-15T02:14:04;52.83;;;22.67;;
67867;SDS011;54672;46.096;14.470;2022-11-15T02:31:41;50.13;;;21.52;;
67867;SDS011;54672;46.096;14.470;2022-11-15T02:34:10;42.65;;;20.08;;
67867;SDS011;54672;46.096;14.470;2022-11-15T02:39:38;41.13;;;20.23;;
67867;SDS011;54672;46.096;14.470;2022-11-15T02:42:13;44.88;;;20.48;;
67867;SDS011;54672;46.096;14.470;2022-11-15T02:45:02;41.13;;;20.15;;
67867;SDS011;54672;46.096;14.470;2022-11-15T02:47:31;41.70;;;20.10;;
67867;SDS011;54672;46.096;14.470;2022-11-15T02:50:07;46.08;;;20.25;;
67867;SDS011;54672;46.096;14.470;2022-11-15T02:52:34;45.03;;;21.33;;
67867;SDS011;54672;46.096;14.470;2022-11-15T02:55:00;44.13;;;20.05;;
67867;SDS011;54672;46.096;14.470;2022-11-15T02:57:41;42.28;;;20.80;;
67867;SDS011;54672;46.096;14.470;2022-11-15T03:00:15;41.22;;;19.48;;
67867;SDS011;54672;46.096;14.470;2022-11-15T03:02:56;42.15;;;18.85;;
67867;SDS011;54672;46.096;14.470;2022-11-15T03:13:47;42.67;;;18.50;;
67867;SDS011;54672;46.096;14.470;2022-11-15T03:19:40;45.53;;;20.63;;
67867;SDS011;54672;46.096;14.470;2022-11-15T03:21:47;46.40;;;20.83;;
67867;SDS011;54672;46.096;14.470;2022-11-15T03:24:14;45.90;;;20.33;;
67867;SDS011;54672;46.096;14.470;2022-11-15T03:26:43;43.38;;;19.75;;
67867;SDS011;54672;46.096;14.470;2022-11-15T03:29:14;40.85;;;19.75;;
67867;SDS011;54672;46.096;14.470;2022-11-15T03:31:47;41.53;;;19.83;;
67867;SDS011;54672;46.096;14.470;2022-11-15T03:34:30;47.42;;;20.60;;
67867;SDS011;54672;46.096;14.470;2022-11-15T03:36:59;51.83;;;21.40;;
67867;SDS011;54672;46.096;14.470;2022-11-15T03:39:25;44.75;;;20.50;;
67867;SDS011;54672;46.096;14.470;2022-11-15T03:49:53;47.60;;;20.20;;
67867;SDS011;54672;46.096;14.470;2022-11-15T03:52:23;43.58;;;19.13;;
67867;SDS011;54672;46.096;14.470;2022-11-15T03:54:53;41.92;;;19.67;;
67867;SDS011;54672;46.096;14.470;2022-11-15T03:57:20;47.28;;;19.23;;
67867;SDS011;54672;46.096;14.470;2022-11-15T03:59:45;46.45;;;20.83;;
67867;SDS011;54672;46.096;14.470;2022-11-15T04:02:11;43.95;;;19.08;;
67867;SDS011;54672;46.096;14.470;2022-11-15T04:04:37;48.90;;;20.65;;
67867;SDS011;54672;46.096;14.470;2022-11-15T04:07:02;46.28;;;20.27;;
67867;SDS011;54672;46.096;14.470;2022-11-15T04:09:29;48.53;;;20.52;;
67867;SDS011;54672;46.096;14.470;2022-11-15T04:11:54;45.75;;;20.63;;
67867;SDS011;54672;46.096;14.470;2022-11-15T04:14:19;47.05;;;21.25;;
67867;SDS011;54672;46.096;14.470;2022-11-15T04:16:45;46.85;;;20.60;;
67867;SDS011;54672;46.096;14.470;2022-11-15T04:19:10;49.65;;;20.65;;
67867;SDS011;54672;46.096;14.470;2022-11-15T04:21:54;51.63;;;21.58;;
67867;SDS011;54672;46.096;14.470;2022-11-15T04:27:23;45.38;;;19.85;;
67867;SDS011;54672;46.096;14.470;2022-11-15T04:29:48;44.65;;;20.00;;
67867;SDS011;54672;46.096;14.470;2022-11-15T04:32:14;50.50;;;20.05;;
67867;SDS011;54672;46.096;14.470;2022-11-15T04:34:39;46.58;;;20.85;;
67867;SDS011;54672;46.096;14.470;2022-11-15T04:37:04;47.25;;;20.45;;
67867;SDS011;54672;46.096;14.470;2022-11-15T04:39:41;50.10;;;20.88;;
67867;SDS011;54672;46.096;14.470;2022-11-15T04:42:07;49.45;;;21.75;;
67867;SDS011;54672;46.096;14.470;2022-11-15T04:44:33;47.65;;;21.60;;
67867;SDS011;54672;46.096;14.470;2022-11-15T04:46:58;42.20;;;19.02;;
67867;SDS011;54672;46.096;14.470;2022-11-15T04:49:24;52.47;;;20.83;;
67867;SDS011;54672;46.096;14.470;2022-11-15T04:51:49;46.38;;;19.23;;
67867;SDS011;54672;46.096;14.470;2022-11-15T04:54:15;46.15;;;20.58;;
67867;SDS011;54672;46.096;14.470;2022-11-15T04:56:40;51.50;;;20.23;;
67867;SDS011;54672;46.096;14.470;2022-11-15T04:59:05;48.28;;;20.55;;
67867;SDS011;54672;46.096;14.470;2022-11-15T05:01:31;48.95;;;19.88;;
67867;SDS011;54672;46.096;14.470;2022-11-15T05:03:56;53.25;;;21.17;;
67867;SDS011;54672;46.096;14.470;2022-11-15T05:06:40;53.45;;;20.35;;
67867;SDS011;54672;46.096;14.470;2022-11-15T05:09:05;58.60;;;20.48;;
67867;SDS011;54672;46.096;14.470;2022-11-15T05:11:31;54.97;;;21.75;;
67867;SDS011;54672;46.096;14.470;2022-11-15T05:13:57;51.85;;;20.45;;
67867;SDS011;54672;46.096;14.470;2022-11-15T05:16:22;60.20;;;21.17;;
67867;SDS011;54672;46.096;14.470;2022-11-15T05:18:50;58.50;;;21.10;;
67867;SDS011;54672;46.096;14.470;2022-11-15T05:21:18;51.55;;;19.77;;
67867;SDS011;54672;46.096;14.470;2022-11-15T05:23:44;55.92;;;21.30;;
67867;SDS011;54672;46.096;14.470;2022-11-15T05:26:09;52.92;;;19.63;;
67867;SDS011;54672;46.096;14.470;2022-11-15T05:28:35;49.97;;;19.30;;
67867;SDS011;54672;46.096;14.470;2022-11-15T05:31:02;51.35;;;20.65;;
67867;SDS011;54672;46.096;14.470;2022-11-15T05:33:38;49.00;;;19.33;;
67867;SDS011;54672;46.096;14.470;2022-11-15T05:38:39;55.78;;;19.30;;
67867;SDS011;54672;46.096;14.470;2022-11-15T05:41:04;52.38;;;20.13;;
67867;SDS011;54672;46.096;14.470;2022-11-15T05:43:31;50.08;;;20.98;;
67867;SDS011;54672;46.096;14.470;2022-11-15T05:46:00;48.72;;;20.60;;
67867;SDS011;54672;46.096;14.470;2022-11-15T05:48:27;58.38;;;20.13;;
67867;SDS011;54672;46.096;14.470;2022-11-15T05:50:52;51.58;;;21.17;;
67867;SDS011;54672;46.096;14.470;2022-11-15T05:53:19;54.08;;;21.30;;
67867;SDS011;54672;46.096;14.470;2022-11-15T05:55:47;49.35;;;18.75;;
67867;SDS011;54672;46.096;14.470;2022-11-15T05:58:12;49.30;;;19.90;;
67867;SDS011;54672;46.096;14.470;2022-11-15T06:00:38;46.70;;;18.55;;
67867;SDS011;54672;46.096;14.470;2022-11-15T06:03:04;49.03;;;20.02;;
67867;SDS011;54672;46.096;14.470;2022-11-15T06:05:29;45.47;;;19.20;;
67867;SDS011;54672;46.096;14.470;2022-11-15T06:07:58;44.47;;;19.27;;
67867;SDS011;54672;46.096;14.470;2022-11-15T06:10:24;44.90;;;18.52;;
67867;SDS011;54672;46.096;14.470;2022-11-15T06:12:59;52.67;;;19.90;;
67867;SDS011;54672;46.096;14.470;2022-11-15T06:15:26;45.97;;;18.88;;
67867;SDS011;54672;46.096;14.470;2022-11-15T06:17:51;53.97;;;20.05;;
67867;SDS011;54672;46.096;14.470;2022-11-15T06:20:17;51.67;;;21.08;;
67867;SDS011;54672;46.096;14.470;2022-11-15T06:22:43;47.63;;;20.13;;
67867;SDS011;54672;46.096;14.470;2022-11-15T06:25:08;47.72;;;20.45;;
67867;SDS011;54672;46.096;14.470;2022-11-15T06:27:33;56.60;;;21.23;;
67867;SDS011;54672;46.096;14.470;2022-11-15T06:29:59;56.17;;;21.85;;
67867;SDS011;54672;46.096;14.470;2022-11-15T06:32:24;54.03;;;22.13;;
67867;SDS011;54672;46.096;14.470;2022-11-15T06:34:50;59.10;;;22.92;;
67867;SDS011;54672;46.096;14.470;2022-11-15T06:37:15;57.90;;;22.88;;
67867;SDS011;54672;46.096;14.470;2022-11-15T06:39:41;59.55;;;23.48;;
67867;SDS011;54672;46.096;14.470;2022-11-15T06:42:07;56.72;;;23.63;;
67867;SDS011;54672;46.096;14.470;2022-11-15T06:44:33;51.88;;;21.73;;
67867;SDS011;54672;46.096;14.470;2022-11-15T06:46:58;56.35;;;21.50;;
67867;SDS011;54672;46.096;14.470;2022-11-15T06:49:24;53.58;;;21.52;;
67867;SDS011;54672;46.096;14.470;2022-11-15T06:51:49;56.53;;;23.38;;
67867;SDS011;54672;46.096;14.470;2022-11-15T06:54:15;62.08;;;23.63;;
67867;SDS011;54672;46.096;14.470;2022-11-15T06:56:40;46.92;;;20.67;;
67867;SDS011;54672;46.096;14.470;2022-11-15T06:59:05;57.88;;;23.10;;
67867;SDS011;54672;46.096;14.470;2022-11-15T07:01:31;52.55;;;22.50;;
67867;SDS011;54672;46.096;14.470;2022-11-15T07:03:56;59.15;;;22.45;;
67867;SDS011;54672;46.096;14.470;2022-11-15T07:06:22;53.47;;;22.52;;
67867;SDS011;54672;46.096;14.470;2022-11-15T07:08:47;54.17;;;22.40;;
67867;SDS011;54672;46.096;14.470;2022-11-15T07:11:12;53.05;;;22.70;;
67867;SDS011;54672;46.096;14.470;2022-11-15T07:13:38;57.92;;;23.40;;
67867;SDS011;54672;46.096;14.470;2022-11-15T07:16:04;56.35;;;22.02;;
67867;SDS011;54672;46.096;14.470;2022-11-15T07:18:33;61.63;;;23.27;;
67867;SDS011;54672;46.096;14.470;2022-11-15T07:21:03;59.83;;;22.83;;
67867;SDS011;54672;46.096;14.470;2022-11-15T07:23:29;61.85;;;23.95;;
67867;SDS011;54672;46.096;14.470;2022-11-15T07:25:56;50.90;;;23.17;;
67867;SDS011;54672;46.096;14.470;2022-11-15T07:28:25;57.63;;;22.20;;
67867;SDS011;54672;46.096;14.470;2022-11-15T07:30:51;55.10;;;21.85;;
67867;SDS011;54672;46.096;14.470;2022-11-15T07:33:16;52.90;;;22.13;;
67867;SDS011;54672;46.096;14.470;2022-11-15T07:35:42;55.03;;;22.98;;
67867;SDS011;54672;46.096;14.470;2022-11-15T07:38:08;48.55;;;21.88;;
67867;SDS011;54672;46.096;14.470;2022-11-15T07:40:33;49.88;;;21.40;;
67867;SDS011;54672;46.096;14.470;2022-11-15T07:43:03;48.83;;;20.83;;
67867;SDS011;54672;46.096;14.470;2022-11-15T07:45:31;49.65;;;21.80;;
67867;SDS011;54672;46.096;14.470;2022-11-15T07:47:58;51.67;;;22.02;;
67867;SDS011;54672;46.096;14.470;2022-11-15T07:50:24;45.65;;;20.35;;
67867;SDS011;54672;46.096;14.470;2022-11-15T07:52:56;49.22;;;22.45;;
67867;SDS011;54672;46.096;14.470;2022-11-15T07:57:49;47.42;;;19.60;;
67867;SDS011;54672;46.096;14.470;2022-11-15T08:00:15;46.50;;;18.80;;
67867;SDS011;54672;46.096;14.470;2022-11-15T08:02:41;43.67;;;19.88;;
67867;SDS011;54672;46.096;14.470;2022-11-15T08:05:07;45.53;;;19.75;;
67867;SDS011;54672;46.096;14.470;2022-11-15T08:07:32;43.63;;;19.42;;
67867;SDS011;54672;46.096;14.470;2022-11-15T08:09:58;41.22;;;18.25;;
67867;SDS011;54672;46.096;14.470;2022-11-15T08:12:26;39.67;;;18.27;;
67867;SDS011;54672;46.096;14.470;2022-11-15T08:14:53;42.88;;;17.48;;
67867;SDS011;54672;46.096;14.470;2022-11-15T08:17:19;43.53;;;18.90;;
67867;SDS011;54672;46.096;14.470;2022-11-15T08:19:45;40.75;;;18.70;;
67867;SDS011;54672;46.096;14.470;2022-11-15T08:22:10;40.38;;;18.60;;
67867;SDS011;54672;46.096;14.470;2022-11-15T08:24:35;39.42;;;17.30;;
67867;SDS011;54672;46.096;14.470;2022-11-15T08:27:01;42.45;;;18.25;;
67867;SDS011;54672;46.096;14.470;2022-11-15T08:29:26;39.53;;;17.35;;
67867;SDS011;54672;46.096;14.470;2022-11-15T08:31:54;38.65;;;17.55;;
67867;SDS011;54672;46.096;14.470;2022-11-15T08:34:20;40.97;;;18.05;;
67867;SDS011;54672;46.096;14.470;2022-11-15T08:36:46;37.65;;;16.50;;
67867;SDS011;54672;46.096;14.470;2022-11-15T08:39:12;38.90;;;17.52;;
67867;SDS011;54672;46.096;14.470;2022-11-15T08:41:38;41.15;;;16.77;;
67867;SDS011;54672;46.096;14.470;2022-11-15T08:44:04;40.03;;;17.20;;
67867;SDS011;54672;46.096;14.470;2022-11-15T08:46:29;36.92;;;16.55;;
67867;SDS011;54672;46.096;14.470;2022-11-15T08:48:55;35.25;;;16.27;;
67867;SDS011;54672;46.096;14.470;2022-11-15T08:51:20;39.72;;;18.02;;
67867;SDS011;54672;46.096;14.470;2022-11-15T08:53:46;39.67;;;17.55;;
67867;SDS011;54672;46.096;14.470;2022-11-15T08:56:12;35.33;;;16.50;;
67867;SDS011;54672;46.096;14.470;2022-11-15T08:58:38;44.75;;;18.52;;
67867;SDS011;54672;46.096;14.470;2022-11-15T09:01:04;35.75;;;16.58;;
67867;SDS011;54672;46.096;14.470;2022-11-15T09:03:30;36.05;;;15.90;;
67867;SDS011;54672;46.096;14.470;2022-11-15T09:05:56;29.30;;;14.98;;
67867;SDS011;54672;46.096;14.470;2022-11-15T09:08:23;26.80;;;13.60;;
67867;SDS011;54672;46.096;14.470;2022-11-15T09:10:50;27.98;;;13.73;;
67867;SDS011;54672;46.096;14.470;2022-11-15T09:13:16;31.75;;;15.40;;
67867;SDS011;54672;46.096;14.470;2022-11-15T09:15:41;31.20;;;14.75;;
67867;SDS011;54672;46.096;14.470;2022-11-15T09:18:07;27.55;;;13.32;;
67867;SDS011;54672;46.096;14.470;2022-11-15T09:20:32;26.58;;;13.13;;
67867;SDS011;54672;46.096;14.470;2022-11-15T09:22:59;26.83;;;13.80;;
67867;SDS011;54672;46.096;14.470;2022-11-15T09:25:26;27.60;;;12.57;;
67867;SDS011;54672;46.096;14.470;2022-11-15T09:27:51;33.58;;;14.50;;
67867;SDS011;54672;46.096;14.470;2022-11-15T09:30:17;28.98;;;13.77;;
67867;SDS011;54672;46.096;14.470;2022-11-15T09:32:42;27.00;;;13.15;;
67867;SDS011;54672;46.096;14.470;2022-11-15T09:35:08;28.67;;;13.35;;
67867;SDS011;54672;46.096;14.470;2022-11-15T09:37:33;27.05;;;12.68;;
67867;SDS011;54672;46.096;14.470;2022-11-15T09:39:59;28.83;;;12.90;;
67867;SDS011;54672;46.096;14.470;2022-11-15T09:45:29;26.50;;;12.35;;
67867;SDS011;54672;46.096;14.470;2022-11-15T09:50:46;20.90;;;10.70;;
67867;SDS011;54672;46.096;14.470;2022-11-15T09:53:15;19.58;;;10.27;;
67867;SDS011;54672;46.096;14.470;2022-11-15T09:56:00;23.17;;;11.73;;
67867;SDS011;54672;46.096;14.470;2022-11-15T09:58:43;22.23;;;11.57;;
67867;SDS011;54672;46.096;14.470;2022-11-15T10:01:15;24.08;;;11.38;;
67867;SDS011;54672;46.096;14.470;2022-11-15T10:03:59;24.35;;;11.48;;
67867;SDS011;54672;46.096;14.470;2022-11-15T10:06:25;27.52;;;13.00;;
67867;SDS011;54672;46.096;14.470;2022-11-15T10:11:40;28.80;;;13.07;;
67867;SDS011;54672;46.096;14.470;2022-11-15T10:14:10;26.38;;;13.00;;
67867;SDS011;54672;46.096;14.470;2022-11-15T10:17:03;31.45;;;14.05;;
67867;SDS011;54672;46.096;14.470;2022-11-15T10:22:39;25.52;;;12.93;;
67867;SDS011;54672;46.096;14.470;2022-11-15T10:28:04;23.45;;;11.38;;
67867;SDS011;54672;46.096;14.470;2022-11-15T10:30:38;22.38;;;11.05;;
67867;SDS011;54672;46.096;14.470;2022-11-15T10:33:54;23.67;;;11.10;;
67867;SDS011;54672;46.096;14.470;2022-11-15T10:41:13;17.80;;;9.65;;
67867;SDS011;54672;46.096;14.470;2022-11-15T10:43:40;14.73;;;8.20;;
67867;SDS011;54672;46.096;14.470;2022-11-15T10:46:19;14.50;;;7.78;;
67867;SDS011;54672;46.096;14.470;2022-11-15T10:48:46;12.10;;;7.57;;
67867;SDS011;54672;46.096;14.470;2022-11-15T10:51:26;16.00;;;7.32;;
67867;SDS011;54672;46.096;14.470;2022-11-15T10:53:54;12.18;;;7.15;;
67867;SDS011;54672;46.096;14.470;2022-11-15T10:56:24;13.32;;;6.40;;
67867;SDS011;54672;46.096;14.470;2022-11-15T10:58:55;12.07;;;6.78;;
67867;SDS011;54672;46.096;14.470;2022-11-15T11:01:23;11.20;;;6.32;;
67867;SDS011;54672;46.096;14.470;2022-11-15T11:04:03;9.82;;;6.15;;
67867;SDS011;54672;46.096;14.470;2022-11-15T11:06:31;11.05;;;6.75;;
67867;SDS011;54672;46.096;14.470;2022-11-15T11:09:34;12.13;;;6.50;;
67867;SDS011;54672;46.096;14.470;2022-11-15T11:12:05;12.88;;;6.90;;
67867;SDS011;54672;46.096;14.470;2022-11-15T11:14:35;13.73;;;7.15;;
67867;SDS011;54672;46.096;14.470;2022-11-15T11:22:09;10.73;;;6.10;;
67867;SDS011;54672;46.096;14.470;2022-11-15T11:24:49;10.45;;;5.82;;
67867;SDS011;54672;46.096;14.470;2022-11-15T11:30:34;9.77;;;6.07;;
67867;SDS011;54672;46.096;14.470;2022-11-15T11:33:20;14.35;;;6.80;;
67867;SDS011;54672;46.096;14.470;2022-11-15T11:41:42;9.13;;;5.57;;
67867;SDS011;54672;46.096;14.470;2022-11-15T11:44:32;8.80;;;5.57;;
67867;SDS011;54672;46.096;14.470;2022-11-15T11:47:21;10.35;;;5.80;;
67867;SDS011;54672;46.096;14.470;2022-11-15T11:52:42;10.88;;;6.03;;
67867;SDS011;54672;46.096;14.470;2022-11-15T11:55:18;9.05;;;6.00;;
67867;SDS011;54672;46.096;14.470;2022-11-15T12:00:47;8.65;;;5.20;;
67867;SDS011;54672;46.096;14.470;2022-11-15T12:03:39;9.18;;;5.03;;
67867;SDS011;54672;46.096;14.470;2022-11-15T12:06:21;10.27;;;5.63;;
67867;SDS011;54672;46.096;14.470;2022-11-15T12:09:22;8.73;;;5.18;;
67867;SDS011;54672;46.096;14.470;2022-11-15T12:12:15;8.68;;;4.85;;
67867;SDS011;54672;46.096;14.470;2022-11-15T12:17:35;12.18;;;5.10;;
67867;SDS011;54672;46.096;14.470;2022-11-15T12:20:05;11.27;;;4.88;;
67867;SDS011;54672;46.096;14.470;2022-11-15T12:30:37;7.70;;;4.75;;
67867;SDS011;54672;46.096;14.470;2022-11-15T12:36:01;6.88;;;4.20;;
67867;SDS011;54672;46.096;14.470;2022-11-15T12:41:17;6.85;;;4.30;;
67867;SDS011;54672;46.096;14.470;2022-11-15T12:43:45;7.78;;;4.40;;
67867;SDS011;54672;46.096;14.470;2022-11-15T12:46:58;7.30;;;4.18;;
67867;SDS011;54672;46.096;14.470;2022-11-15T12:48:59;6.80;;;4.13;;
67867;SDS011;54672;46.096;14.470;2022-11-15T13:17:39;5.68;;;3.45;;
67867;SDS011;54672;46.096;14.470;2022-11-15T13:23:17;5.20;;;3.28;;
67867;SDS011;54672;46.096;14.470;2022-11-15T13:28:24;5.97;;;3.45;;
67867;SDS011;54672;46.096;14.470;2022-11-15T13:30:58;6.95;;;3.45;;
67867;SDS011;54672;46.096;14.470;2022-11-15T13:33:34;4.80;;;3.50;;
67867;SDS011;54672;46.096;14.470;2022-11-15T13:41:14;4.85;;;3.38;;
67867;SDS011;54672;46.096;14.470;2022-11-15T13:43:47;4.75;;;3.08;;
67867;SDS011;54672;46.096;14.470;2022-11-15T13:46:17;15.32;;;3.63;;
67867;SDS011;54672;46.096;14.470;2022-11-15T13:48:45;4.47;;;3.25;;
67867;SDS011;54672;46.096;14.470;2022-11-15T13:56:39;4.60;;;3.10;;
67867;SDS011;54672;46.096;14.470;2022-11-15T13:59:15;5.30;;;3.55;;
67867;SDS011;54672;46.096;14.470;2022-11-15T14:01:49;4.70;;;3.08;;
67867;SDS011;54672;46.096;14.470;2022-11-15T14:04:17;4.55;;;2.95;;
67867;SDS011;54672;46.096;14.470;2022-11-15T14:06:45;5.22;;;3.13;;
67867;SDS011;54672;46.096;14.470;2022-11-15T14:09:24;6.10;;;3.08;;
67867;SDS011;54672;46.096;14.470;2022-11-15T14:11:56;4.25;;;2.97;;
67867;SDS011;54672;46.096;14.470;2022-11-15T14:14:22;6.85;;;3.25;;
67867;SDS011;54672;46.096;14.470;2022-11-15T14:16:53;5.82;;;3.30;;
67867;SDS011;54672;46.096;14.470;2022-11-15T14:24:32;6.90;;;3.28;;
67867;SDS011;54672;46.096;14.470;2022-11-15T14:27:15;5.25;;;3.13;;
67867;SDS011;54672;46.096;14.470;2022-11-15T14:29:45;5.15;;;2.88;;
67867;SDS011;54672;46.096;14.470;2022-11-15T14:32:21;5.80;;;3.42;;
67867;SDS011;54672;46.096;14.470;2022-11-15T14:34:56;5.43;;;3.35;;
67867;SDS011;54672;46.096;14.470;2022-11-15T14:39:50;6.95;;;3.63;;
67867;SDS011;54672;46.096;14.470;2022-11-15T14:42:16;8.57;;;3.90;;
67867;SDS011;54672;46.096;14.470;2022-11-15T14:44:43;6.60;;;4.00;;
67867;SDS011;54672;46.096;14.470;2022-11-15T14:47:08;5.78;;;3.53;;
67867;SDS011;54672;46.096;14.470;2022-11-15T14:49:34;10.00;;;4.90;;
67867;SDS011;54672;46.096;14.470;2022-11-15T14:51:59;6.93;;;4.03;;
67867;SDS011;54672;46.096;14.470;2022-11-15T14:54:24;7.15;;;4.32;;
67867;SDS011;54672;46.096;14.470;2022-11-15T14:56:50;8.43;;;4.50;;
67867;SDS011;54672;46.096;14.470;2022-11-15T14:59:15;5.93;;;4.13;;
67867;SDS011;54672;46.096;14.470;2022-11-15T15:01:41;7.18;;;3.85;;
67867;SDS011;54672;46.096;14.470;2022-11-15T15:04:06;7.28;;;3.85;;
67867;SDS011;54672;46.096;14.470;2022-11-15T15:06:31;7.30;;;4.20;;
67867;SDS011;54672;46.096;14.470;2022-11-15T15:08:57;6.68;;;4.40;;
67867;SDS011;54672;46.096;14.470;2022-11-15T15:11:23;9.38;;;4.60;;
67867;SDS011;54672;46.096;14.470;2022-11-15T15:13:51;7.30;;;4.50;;
67867;SDS011;54672;46.096;14.470;2022-11-15T15:16:17;7.90;;;4.45;;
67867;SDS011;54672;46.096;14.470;2022-11-15T15:18:43;5.88;;;3.90;;
67867;SDS011;54672;46.096;14.470;2022-11-15T15:24:03;9.38;;;5.00;;
67867;SDS011;54672;46.096;14.470;2022-11-15T15:26:29;8.18;;;4.78;;
67867;SDS011;54672;46.096;14.470;2022-11-15T15:28:54;7.45;;;4.50;;
67867;SDS011;54672;46.096;14.470;2022-11-15T15:31:20;7.25;;;3.92;;
67867;SDS011;54672;46.096;14.470;2022-11-15T15:33:45;6.40;;;3.42;;
67867;SDS011;54672;46.096;14.470;2022-11-15T15:36:14;7.15;;;4.18;;
67867;SDS011;54672;46.096;14.470;2022-11-15T15:38:44;7.32;;;4.00;;
67867;SDS011;54672;46.096;14.470;2022-11-15T15:41:11;8.90;;;4.35;;
67867;SDS011;54672;46.096;14.470;2022-11-15T15:43:38;7.88;;;4.88;;
67867;SDS011;54672;46.096;14.470;2022-11-15T15:46:04;7.63;;;4.63;;
67867;SDS011;54672;46.096;14.470;2022-11-15T15:48:32;7.63;;;4.78;;
67867;SDS011;54672;46.096;14.470;2022-11-15T15:50:58;10.35;;;6.00;;
67867;SDS011;54672;46.096;14.470;2022-11-15T15:53:24;23.35;;;9.98;;
67867;SDS011;54672;46.096;14.470;2022-11-15T15:55:49;12.15;;;6.38;;
67867;SDS011;54672;46.096;14.470;2022-11-15T15:58:15;59.50;;;27.65;;
67867;SDS011;54672;46.096;14.470;2022-11-15T16:00:40;13.88;;;7.93;;
67867;SDS011;54672;46.096;14.470;2022-11-15T16:03:05;13.27;;;7.43;;
67867;SDS011;54672;46.096;14.470;2022-11-15T16:05:31;11.45;;;6.78;;
67867;SDS011;54672;46.096;14.470;2022-11-15T16:07:56;29.15;;;14.93;;
67867;SDS011;54672;46.096;14.470;2022-11-15T16:10:23;52.53;;;20.73;;
67867;SDS011;54672;46.096;14.470;2022-11-15T16:12:50;107.90;;;40.83;;
67867;SDS011;54672;46.096;14.470;2022-11-15T16:15:15;44.80;;;19.20;;
67867;SDS011;54672;46.096;14.470;2022-11-15T16:17:44;32.30;;;16.13;;
67867;SDS011;54672;46.096;14.470;2022-11-15T16:20:23;16.27;;;8.80;;
67867;SDS011;54672;46.096;14.470;2022-11-15T16:22:56;19.27;;;10.65;;
67867;SDS011;54672;46.096;14.470;2022-11-15T16:25:22;18.63;;;8.73;;
67867;SDS011;54672;46.096;14.470;2022-11-15T16:27:48;14.85;;;8.73;;
67867;SDS011;54672;46.096;14.470;2022-11-15T16:30:14;13.82;;;7.72;;
67867;SDS011;54672;46.096;14.470;2022-11-15T16:32:41;12.70;;;7.03;;
67867;SDS011;54672;46.096;14.470;2022-11-15T16:35:07;12.40;;;7.35;;
67867;SDS011;54672;46.096;14.470;2022-11-15T16:37:36;13.82;;;7.68;;
67867;SDS011;54672;46.096;14.470;2022-11-15T16:40:01;14.77;;;7.60;;
67867;SDS011;54672;46.096;14.470;2022-11-15T16:42:27;11.77;;;6.90;;
67867;SDS011;54672;46.096;14.470;2022-11-15T16:44:53;12.15;;;6.18;;
67867;SDS011;54672;46.096;14.470;2022-11-15T16:47:18;12.98;;;7.13;;
67867;SDS011;54672;46.096;14.470;2022-11-15T16:49:44;14.95;;;7.50;;
67867;SDS011;54672;46.096;14.470;2022-11-15T16:52:10;12.32;;;7.07;;
67867;SDS011;54672;46.096;14.470;2022-11-15T16:54:36;12.45;;;7.03;;
67867;SDS011;54672;46.096;14.470;2022-11-15T16:57:02;12.65;;;6.90;;
67867;SDS011;54672;46.096;14.470;2022-11-15T16:59:27;14.05;;;7.50;;